Time;durP1;ratioP1;P1;durP2;ratioP2;P2;SDS_P1;SDS_P2;PMS_P1;PMS_P2;Temp;Humidity;BMP_temperature;BMP_pressure;BME280_temperature;BME280_humidity;BME280_pressure;Samples;Min_cycle;Max_cycle;Signal;HPM_P1;HPM_P2
2022/11/04 00:01:48;;;;;;;17.08;4.60;;;11.90;99.90;;;;;;5091983;28;20046;-68
2022/11/04 00:04:16;;;;;;;19.27;6.00;;;11.90;99.90;;;;;;5089643;28;20032;-67
2022/11/04 00:06:41;;;;;;;15.52;4.95;;;11.90;99.90;;;;;;5095125;28;20047;-68
2022/11/04 00:09:10;;;;;;;12.88;4.28;;;11.90;99.90;;;;;;5083511;28;20051;-68
2022/11/04 00:14:21;;;;;;;11.35;1.92;;;11.80;99.90;;;;;;5084370;28;20379;-68
2022/11/04 00:33:24;;;;;;;11.48;2.33;;;11.60;99.90;;;;;;5090952;28;20077;-67
2022/11/04 00:33:43;;;;;;;10.85;2.80;;;11.60;99.90;;;;;;5093256;28;20078;-68
2022/11/04 00:36:08;;;;;;;11.88;2.47;;;11.50;99.90;;;;;;5088340;28;20052;-67
2022/11/04 00:38:34;;;;;;;8.65;1.48;;;11.50;99.90;;;;;;5084256;28;20017;-68
2022/11/04 00:40:59;;;;;;;13.57;2.38;;;11.50;99.90;;;;;;5079682;28;20024;-68
2022/11/04 00:43:25;;;;;;;11.98;2.97;;;11.50;99.90;;;;;;5094054;28;20063;-67
2022/11/04 00:45:50;;;;;;;12.15;2.88;;;11.50;99.90;;;;;;5092846;28;20039;-68
2022/11/04 00:48:16;;;;;;;10.60;2.17;;;11.50;99.90;;;;;;5086193;28;20346;-69
2022/11/04 00:50:41;;;;;;;8.55;2.45;;;11.50;99.90;;;;;;5077247;28;20025;-68
2022/11/04 00:53:07;;;;;;;8.85;2.28;;;11.50;99.90;;;;;;5091077;28;20060;-68
2022/11/04 00:55:33;;;;;;;12.35;2.42;;;11.50;99.90;;;;;;5083034;28;20024;-68
2022/11/04 00:57:59;;;;;;;8.02;1.55;;;11.50;99.90;;;;;;5089162;28;20021;-68
2022/11/04 01:00:25;;;;;;;13.25;2.50;;;11.50;99.90;;;;;;5081203;28;20035;-68
2022/11/04 01:02:51;;;;;;;7.63;1.67;;;11.50;99.90;;;;;;5081247;28;20035;-68
2022/11/04 01:05:16;;;;;;;9.98;1.92;;;11.50;99.90;;;;;;5091520;28;20028;-68
2022/11/04 01:07:42;;;;;;;7.00;1.40;;;11.40;99.90;;;;;;5092430;28;20030;-68
2022/11/04 01:10:08;;;;;;;9.48;1.80;;;11.40;99.90;;;;;;5086982;28;20373;-68
2022/11/04 01:12:33;;;;;;;9.20;2.00;;;11.40;99.90;;;;;;5076349;28;20021;-68
2022/11/04 01:14:59;;;;;;;9.32;1.70;;;11.40;99.90;;;;;;5078627;28;20067;-70
2022/11/04 01:17:24;;;;;;;8.23;1.88;;;11.30;99.90;;;;;;5091923;28;20019;-69
2022/11/04 01:19:50;;;;;;;6.60;1.52;;;11.30;99.90;;;;;;5088820;28;20028;-69
2022/11/04 01:22:16;;;;;;;5.55;1.05;;;11.20;99.90;;;;;;5075924;28;20020;-68
2022/11/04 01:24:41;;;;;;;4.85;0.93;;;11.10;99.90;;;;;;5083047;28;20338;-69
2022/11/04 01:27:07;;;;;;;4.47;1.20;;;11.00;99.90;;;;;;5090577;28;20120;-69
2022/11/04 01:29:32;;;;;;;5.95;1.17;;;10.90;99.90;;;;;;5084055;28;20024;-68
2022/11/04 01:31:58;;;;;;;10.30;1.20;;;10.80;99.90;;;;;;5079311;28;20027;-69
2022/11/04 01:34:23;;;;;;;10.68;1.70;;;10.80;99.90;;;;;;5091313;28;20027;-71
2022/11/04 01:36:49;;;;;;;13.32;1.50;;;10.80;99.90;;;;;;5091751;28;20046;-69
2022/11/04 01:39:14;;;;;;;1.58;0.95;;;10.70;99.90;;;;;;5085105;28;20030;-69
2022/11/04 01:41:40;;;;;;;8.35;1.50;;;10.60;99.90;;;;;;5076659;28;20047;-69
2022/11/04 01:44:43;;;;;;;4.70;1.42;;;10.50;99.90;;;;;;5092256;28;20074;-68
2022/11/04 01:47:37;;;;;;;6.50;1.10;;;10.50;99.90;;;;;;5086489;28;20035;-69
2022/11/04 01:50:14;;;;;;;9.60;2.65;;;10.40;99.90;;;;;;5055277;28;20051;-69
2022/11/04 01:52:59;;;;;;;7.43;1.25;;;10.40;99.90;;;;;;5090205;28;20110;-71
2022/11/04 01:55:32;;;;;;;6.25;1.35;;;10.50;99.90;;;;;;5085793;28;20028;-70
2022/11/04 01:58:03;;;;;;;6.22;1.45;;;10.50;99.90;;;;;;5091646;28;20065;-70
2022/11/04 02:00:28;;;;;;;3.72;0.98;;;10.50;99.90;;;;;;5083449;28;20068;-69
2022/11/04 02:03:03;;;;;;;10.50;1.50;;;10.50;99.90;;;;;;5088159;28;20028;-69
2022/11/04 02:05:29;;;;;;;6.35;1.60;;;10.50;99.90;;;;;;5084285;28;20135;-70
2022/11/04 02:07:57;;;;;;;7.35;1.50;;;10.40;99.90;;;;;;5092433;28;20020;-71
2022/11/04 02:10:26;;;;;;;8.70;1.40;;;10.50;99.90;;;;;;5091202;28;20031;-71
2022/11/04 02:12:52;;;;;;;5.82;1.20;;;10.40;99.90;;;;;;5085562;28;20047;-70
2022/11/04 02:15:33;;;;;;;6.95;0.77;;;10.40;99.90;;;;;;5081870;28;20464;-73
2022/11/04 02:18:37;;;;;;;4.28;1.00;;;10.40;99.90;;;;;;5089194;28;20020;-71
2022/11/04 02:21:12;;;;;;;3.78;1.15;;;10.30;99.90;;;;;;5088979;28;20503;-70
2022/11/04 02:24:15;;;;;;;7.57;1.75;;;10.20;99.90;;;;;;5084786;28;20031;-71
2022/11/04 02:26:59;;;;;;;8.30;1.13;;;10.10;99.90;;;;;;5085480;28;20032;-72
2022/11/04 02:29:46;;;;;;;12.98;1.50;;;10.10;99.90;;;;;;5083786;28;20059;-72
2022/11/04 02:32:49;;;;;;;5.95;1.30;;;10.10;99.90;;;;;;5087057;28;20024;-69
2022/11/04 02:35:26;;;;;;;;;;;10.10;99.90;;;;;;5089166;28;20035;-71
2022/11/04 02:38:23;;;;;;;11.10;1.92;;;10.10;99.90;;;;;;5092448;28;19904;-72
2022/11/04 02:41:13;;;;;;;10.63;1.50;;;10.10;99.90;;;;;;5084664;28;20130;-72
2022/11/04 02:44:03;;;;;;;4.63;1.08;;;10.10;99.90;;;;;;5087140;28;20058;-71
2022/11/04 02:46:42;;;;;;;6.32;0.90;;;10.20;99.90;;;;;;5083303;28;20359;-71
2022/11/04 02:49:17;;;;;;;8.10;1.25;;;10.20;99.90;;;;;;5087110;28;20135;-69
2022/11/04 02:51:53;;;;;;;5.45;1.10;;;10.20;99.90;;;;;;5090415;28;20387;-69
2022/11/04 02:54:33;;;;;;;2.33;0.88;;;10.20;99.90;;;;;;5092540;28;20115;-70
2022/11/04 02:57:03;;;;;;;9.73;1.23;;;10.20;99.90;;;;;;5090114;28;20111;-70
2022/11/04 02:59:40;;;;;;;6.55;0.95;;;10.20;99.90;;;;;;5091990;28;20059;-68
2022/11/04 03:02:11;;;;;;;3.22;0.90;;;10.20;99.90;;;;;;5092446;28;20102;-70
2022/11/04 03:04:42;;;;;;;6.93;1.30;;;10.20;99.90;;;;;;5092933;28;20110;-69
2022/11/04 03:07:11;;;;;;;4.05;0.75;;;10.20;99.90;;;;;;5091542;28;20645;-68
2022/11/04 03:09:40;;;;;;;11.48;1.23;;;10.20;99.90;;;;;;5092545;28;20020;-70
2022/11/04 03:12:14;;;;;;;0.75;0.45;;;10.20;99.90;;;;;;5092628;28;20028;-69
2022/11/04 03:14:45;;;;;;;7.47;1.40;;;10.20;99.90;;;;;;5092566;28;20060;-69
2022/11/04 03:17:20;;;;;;;5.07;0.60;;;10.20;99.90;;;;;;5091290;28;20039;-69
2022/11/04 03:19:55;;;;;;;3.97;1.00;;;10.20;99.90;;;;;;5092647;28;20103;-69
2022/11/04 03:22:28;;;;;;;4.15;0.93;;;10.20;99.90;;;;;;5092177;28;20020;-70
2022/11/04 03:24:54;;;;;;;6.80;0.77;;;10.20;99.90;;;;;;5091952;28;20024;-70
2022/11/04 03:27:26;;;;;;;2.42;1.10;;;10.20;99.90;;;;;;5092601;28;20032;-71
2022/11/04 03:30:12;;;;;;;17.80;2.17;;;10.20;99.90;;;;;;5096883;28;20047;-76
2022/11/04 03:32:53;;;;;;;4.30;0.45;;;10.30;99.90;;;;;;5097092;28;20056;-71
2022/11/04 03:35:19;;;;;;;4.85;0.90;;;10.30;99.90;;;;;;5096595;28;20024;-72
2022/11/04 03:37:47;;;;;;;6.57;1.15;;;10.20;99.90;;;;;;5096683;28;20085;-73
2022/11/04 03:40:13;;;;;;;4.53;0.85;;;10.20;99.90;;;;;;5096525;28;20115;-74
2022/11/04 03:42:47;;;;;;;3.90;1.00;;;10.10;99.90;;;;;;5096306;28;20360;-73
2022/11/04 03:45:13;;;;;;;3.17;1.10;;;10.10;99.90;;;;;;5096406;28;20036;-75
2022/11/04 03:47:39;;;;;;;1.58;0.90;;;10.00;99.90;;;;;;5096258;28;20024;-72
2022/11/04 03:50:30;;;;;;;2.90;1.25;;;10.00;99.90;;;;;;5096373;28;20448;-72
2022/11/04 03:52:57;;;;;;;7.35;0.77;;;9.90;99.90;;;;;;5075397;28;20031;-75
2022/11/04 03:55:46;;;;;;;3.10;0.98;;;9.90;99.90;;;;;;5076369;28;20027;-72
2022/11/04 03:58:29;;;;;;;4.47;0.93;;;9.80;99.90;;;;;;5075985;28;20020;-74
2022/11/04 04:01:13;;;;;;;5.97;1.10;;;9.80;99.90;;;;;;5076123;28;20050;-73
2022/11/04 04:03:55;;;;;;;3.22;1.00;;;9.80;99.90;;;;;;5075565;28;20027;-71
2022/11/04 04:06:28;;;;;;;10.45;1.15;;;9.80;99.90;;;;;;5075937;28;20035;-74
2022/11/04 04:09:31;;;;;;;4.90;1.02;;;9.80;99.90;;;;;;5091540;28;20024;-72
2022/11/04 04:12:00;;;;;;;;;;;9.90;99.90;;;;;;5095947;28;20020;-73
2022/11/04 04:14:38;;;;;;;9.40;2.88;;;9.90;99.90;;;;;;5096088;28;19899;-74
2022/11/04 04:17:19;;;;;;;13.00;4.57;;;9.80;99.90;;;;;;5095911;28;20019;-75
2022/11/04 04:19:51;;;;;;;5.82;0.85;;;9.90;99.90;;;;;;5095503;28;20024;-74
2022/11/04 04:22:30;;;;;;;3.78;0.70;;;9.90;99.90;;;;;;5095738;28;20082;-74
2022/11/04 04:27:45;;;;;;;7.85;1.10;;;9.80;99.90;;;;;;5095836;28;20080;-72
2022/11/04 04:30:14;;;;;;;3.75;1.10;;;9.80;99.90;;;;;;5095514;28;20016;-72
2022/11/04 04:32:52;;;;;;;10.00;1.33;;;9.80;99.90;;;;;;5095441;28;20020;-74
2022/11/04 04:35:43;;;;;;;5.13;0.85;;;9.80;99.90;;;;;;5096166;28;20149;-73
2022/11/04 04:46:37;;;;;;;4.63;1.40;;;9.90;99.90;;;;;;5092186;28;20073;-71
2022/11/04 04:49:07;;;;;;;5.30;0.90;;;9.90;99.90;;;;;;5094920;28;20036;-71
2022/11/04 04:51:37;;;;;;;2.85;0.82;;;9.90;99.90;;;;;;5094702;28;20076;-72
2022/11/04 04:54:02;;;;;;;2.67;0.65;;;9.90;99.90;;;;;;5081206;28;20040;-72
2022/11/04 04:56:28;;;;;;;6.80;1.30;;;9.90;99.90;;;;;;5090890;28;20452;-71
2022/11/04 04:58:54;;;;;;;5.07;0.90;;;9.90;99.90;;;;;;5094574;28;20769;-72
2022/11/04 05:01:19;;;;;;;1.85;1.05;;;9.80;99.90;;;;;;5090662;28;20422;-72
2022/11/04 05:03:45;;;;;;;3.50;1.08;;;9.80;99.90;;;;;;5094486;28;20745;-71
2022/11/04 05:06:10;;;;;;;12.20;3.67;;;9.90;99.90;;;;;;5094814;28;20044;-70
2022/11/04 05:08:36;;;;;;;7.32;2.65;;;9.90;99.90;;;;;;5094183;28;20021;-71
2022/11/04 05:11:02;;;;;;;8.13;2.10;;;9.90;99.90;;;;;;5089341;28;20020;-72
2022/11/04 05:13:30;;;;;;;4.85;2.17;;;9.90;99.90;;;;;;5082573;28;20020;-71
2022/11/04 05:16:01;;;;;;;9.15;2.88;;;9.90;99.90;;;;;;5089497;28;20024;-71
2022/11/04 05:18:27;;;;;;;7.80;3.78;;;10.00;99.90;;;;;;5092940;28;20027;-70
2022/11/04 05:20:52;;;;;;;8.05;2.85;;;10.00;99.90;;;;;;5094057;28;20091;-71
2022/11/04 05:23:18;;;;;;;5.40;2.03;;;10.00;99.90;;;;;;5086598;28;20024;-70
2022/11/04 05:25:44;;;;;;;8.60;2.00;;;10.00;99.90;;;;;;5084892;28;20085;-70
2022/11/04 05:28:09;;;;;;;20.08;7.22;;;10.00;99.90;;;;;;5079705;28;20016;-71
2022/11/04 05:30:35;;;;;;;14.25;4.25;;;10.10;99.90;;;;;;5090554;28;20035;-71
2022/11/04 05:33:01;;;;;;;9.43;2.38;;;10.10;99.90;;;;;;5081792;28;20352;-72
2022/11/04 05:35:26;;;;;;;6.72;2.30;;;10.20;99.90;;;;;;5093742;28;20026;-71
2022/11/04 05:37:54;;;;;;;4.30;1.42;;;10.20;99.90;;;;;;5081956;28;20074;-73
2022/11/04 05:40:19;;;;;;;5.43;2.63;;;10.20;99.90;;;;;;5089439;28;20081;-72
2022/11/04 05:42:45;;;;;;;9.52;3.25;;;10.10;99.90;;;;;;5077104;28;20471;-72
2022/11/04 05:45:10;;;;;;;9.73;4.20;;;10.10;99.90;;;;;;5093763;28;20500;-73
2022/11/04 05:47:36;;;;;;;8.10;2.78;;;10.10;99.90;;;;;;5084015;28;20444;-72
2022/11/04 05:50:02;;;;;;;7.15;3.72;;;10.10;99.90;;;;;;5086930;28;20066;-71
2022/11/04 05:52:28;;;;;;;10.00;3.92;;;10.10;99.90;;;;;;5092926;28;20074;-72
2022/11/04 05:54:53;;;;;;;14.15;4.60;;;10.10;99.90;;;;;;5089722;28;20012;-71
2022/11/04 05:57:19;;;;;;;14.43;4.95;;;10.20;99.90;;;;;;5091553;28;20020;-72
2022/11/04 05:59:44;;;;;;;18.33;6.88;;;10.20;99.90;;;;;;5082225;28;20042;-70
2022/11/04 06:02:10;;;;;;;14.82;5.43;;;10.20;99.90;;;;;;5088400;28;20031;-71
2022/11/04 06:04:35;;;;;;;20.33;7.95;;;10.20;99.90;;;;;;5076589;28;20075;-72
2022/11/04 06:07:01;;;;;;;22.35;8.93;;;10.20;99.90;;;;;;5093744;28;20024;-71
2022/11/04 06:09:39;;;;;;;19.27;7.25;;;10.20;99.90;;;;;;5093213;28;20016;-71
2022/11/04 06:12:09;;;;;;;22.90;8.07;;;10.20;99.90;;;;;;5081759;28;20024;-71
2022/11/04 06:14:35;;;;;;;23.08;8.57;;;10.30;99.90;;;;;;5092618;28;20024;-72
2022/11/04 06:17:01;;;;;;;22.33;8.25;;;10.30;99.90;;;;;;5093568;28;20030;-71
2022/11/04 06:19:27;;;;;;;25.33;10.25;;;10.30;99.90;;;;;;5093609;28;20020;-73
2022/11/04 06:21:52;;;;;;;29.15;9.43;;;10.40;99.90;;;;;;5079843;28;20043;-73
2022/11/04 06:24:18;;;;;;;25.50;9.80;;;10.40;99.90;;;;;;5088428;28;20028;-73
2022/11/04 06:26:44;;;;;;;26.65;8.80;;;10.40;99.90;;;;;;5093233;28;20059;-71
2022/11/04 06:29:10;;;;;;;24.10;9.52;;;10.50;99.90;;;;;;5089499;28;20020;-73
2022/11/04 06:31:36;;;;;;;27.40;10.73;;;10.50;99.90;;;;;;5092725;28;20020;-72
2022/11/04 06:34:01;;;;;;;24.33;9.25;;;10.60;99.90;;;;;;5093477;28;20055;-72
2022/11/04 06:36:27;;;;;;;28.40;10.05;;;10.60;99.90;;;;;;5092659;28;20028;-72
2022/11/04 06:38:53;;;;;;;25.88;9.52;;;10.60;99.90;;;;;;5089446;28;20013;-71
2022/11/04 06:41:18;;;;;;;26.42;8.75;;;10.60;99.90;;;;;;5082350;28;20329;-72
2022/11/04 06:43:44;;;;;;;24.23;9.73;;;10.70;99.90;;;;;;5091423;28;20048;-71
2022/11/04 06:46:40;;;;;;;24.23;10.30;;;10.70;99.90;;;;;;5078176;28;20097;-71
2022/11/04 06:49:10;;;;;;;23.60;9.45;;;10.70;99.90;;;;;;5087193;28;20563;-71
2022/11/04 06:51:36;;;;;;;28.60;10.50;;;10.70;99.90;;;;;;5082877;28;20042;-70
2022/11/04 06:54:02;;;;;;;24.50;9.45;;;10.70;99.90;;;;;;5084618;28;20468;-72
2022/11/04 06:56:27;;;;;;;23.88;8.27;;;10.70;99.90;;;;;;5075547;28;20100;-72
2022/11/04 06:58:54;;;;;;;24.90;10.48;;;10.70;99.90;;;;;;5092207;28;20069;-71
2022/11/04 07:01:21;;;;;;;26.90;10.27;;;10.60;99.90;;;;;;5092714;28;20215;-73
2022/11/04 07:03:52;;;;;;;25.30;9.30;;;10.60;99.90;;;;;;5080581;28;20032;-71
2022/11/04 07:06:18;;;;;;;25.90;9.25;;;10.60;99.90;;;;;;5087966;28;20020;-72
2022/11/04 07:08:44;;;;;;;25.40;9.98;;;10.60;99.90;;;;;;5075869;28;20023;-72
2022/11/04 07:11:10;;;;;;;30.45;10.93;;;10.50;99.90;;;;;;5086680;28;20021;-72
2022/11/04 07:13:36;;;;;;;25.98;10.32;;;10.50;99.90;;;;;;5082278;28;20398;-71
2022/11/04 07:16:12;;;;;;;25.38;11.80;;;10.60;99.90;;;;;;5092467;28;20062;-72
2022/11/04 07:18:37;;;;;;;25.77;10.65;;;10.60;99.90;;;;;;5090973;28;20020;-72
2022/11/04 07:21:04;;;;;;;24.38;10.48;;;10.60;99.90;;;;;;5077469;28;20482;-71
2022/11/04 07:23:29;;;;;;;27.27;10.23;;;10.60;99.90;;;;;;5084283;28;20395;-71
2022/11/04 07:26:02;;;;;;;26.10;9.52;;;10.70;99.90;;;;;;5092203;28;20028;-73
2022/11/04 07:28:27;;;;;;;22.05;8.45;;;10.70;99.90;;;;;;5075754;28;20020;-73
2022/11/04 07:30:57;;;;;;;21.80;7.80;;;10.80;99.90;;;;;;5088122;28;20112;-72
2022/11/04 07:33:24;;;;;;;19.75;8.75;;;10.80;99.90;;;;;;5091584;28;20084;-71
2022/11/04 07:35:50;;;;;;;20.20;7.93;;;10.90;99.90;;;;;;5092061;28;20047;-71
2022/11/04 07:38:16;;;;;;;21.02;7.35;;;10.90;99.90;;;;;;5092440;28;20043;-72
2022/11/04 07:40:41;;;;;;;20.55;7.95;;;10.90;99.90;;;;;;5087494;28;20503;-72
2022/11/04 07:43:07;;;;;;;22.42;9.07;;;10.90;99.90;;;;;;5092368;28;20090;-73
2022/11/04 07:45:32;;;;;;;22.23;9.32;;;10.90;99.90;;;;;;5081139;28;20044;-72
2022/11/04 07:47:58;;;;;;;20.75;8.70;;;10.90;99.90;;;;;;5085026;28;20035;-73
2022/11/04 07:50:23;;;;;;;24.02;9.07;;;11.00;99.90;;;;;;5083713;28;20028;-73
2022/11/04 07:52:52;;;;;;;21.95;7.75;;;11.00;99.90;;;;;;5087022;28;20020;-71
2022/11/04 07:55:18;;;;;;;21.73;9.40;;;11.00;99.90;;;;;;5079021;28;20035;-73
2022/11/04 07:57:47;;;;;;;20.35;7.68;;;11.00;99.90;;;;;;5081345;28;20028;-73
2022/11/04 08:00:16;;;;;;;21.33;7.97;;;11.10;99.90;;;;;;5086357;28;20024;-71
2022/11/04 08:02:45;;;;;;;22.33;8.23;;;11.10;99.90;;;;;;5091278;28;20024;-72
2022/11/04 08:05:12;;;;;;;23.45;9.20;;;11.20;99.90;;;;;;5087043;28;20078;-72
2022/11/04 08:07:38;;;;;;;20.70;8.00;;;11.20;99.90;;;;;;5091607;28;20024;-72
2022/11/04 08:10:04;;;;;;;22.70;8.63;;;11.20;99.90;;;;;;5091438;28;20032;-72
2022/11/04 08:12:31;;;;;;;21.27;8.73;;;11.20;99.90;;;;;;5075193;28;20078;-72
2022/11/04 08:14:57;;;;;;;23.38;8.93;;;11.30;99.90;;;;;;5090238;28;20012;-73
2022/11/04 08:17:23;;;;;;;19.90;7.65;;;11.30;99.90;;;;;;5083494;28;20055;-72
2022/11/04 08:19:48;;;;;;;22.30;9.05;;;11.40;99.90;;;;;;5083768;28;20048;-72
2022/11/04 08:22:14;;;;;;;22.42;9.18;;;11.40;99.90;;;;;;5090296;28;20069;-72
2022/11/04 08:24:39;;;;;;;20.70;8.10;;;11.40;99.90;;;;;;5095291;28;20028;-72
2022/11/04 08:27:06;;;;;;;21.85;7.25;;;11.40;99.90;;;;;;5090957;28;20413;-74
2022/11/04 08:29:33;;;;;;;23.67;8.00;;;11.30;99.90;;;;;;5088018;28;20008;-72
2022/11/04 08:31:58;;;;;;;21.90;8.80;;;11.30;99.90;;;;;;5082749;28;20039;-71
2022/11/04 08:34:24;;;;;;;19.25;7.85;;;11.30;99.90;;;;;;5091851;28;20410;-73
2022/11/04 08:36:52;;;;;;;20.65;8.20;;;11.30;99.90;;;;;;5078489;28;20016;-73
2022/11/04 08:39:18;;;;;;;23.08;9.65;;;11.30;99.90;;;;;;5100401;28;20072;-73
2022/11/04 08:41:44;;;;;;;24.80;9.20;;;11.30;99.90;;;;;;5099637;28;20080;-72
2022/11/04 08:44:13;;;;;;;26.58;10.20;;;11.30;99.90;;;;;;5102724;28;20432;-71
2022/11/04 08:46:41;;;;;;;29.85;10.98;;;11.40;99.90;;;;;;5106079;28;20012;-71
2022/11/04 08:49:07;;;;;;;25.50;10.73;;;11.50;99.90;;;;;;5107586;28;20096;-72
2022/11/04 08:51:36;;;;;;;25.08;10.85;;;11.60;99.90;;;;;;5110484;28;20185;-73
2022/11/04 08:54:03;;;;;;;26.88;11.10;;;11.70;99.90;;;;;;5108548;28;20015;-73
2022/11/04 08:56:31;;;;;;;26.27;10.27;;;11.90;99.90;;;;;;5097638;28;20016;-73
2022/11/04 08:58:58;;;;;;;23.58;10.73;;;12.20;99.90;;;;;;5107126;28;20459;-73
2022/11/04 09:01:26;;;;;;;23.52;9.43;;;12.40;99.90;;;;;;5098365;28;20061;-74
2022/11/04 09:03:51;;;;;;;22.30;9.20;;;12.60;99.90;;;;;;5087608;28;20030;-72
2022/11/04 09:06:21;;;;;;;19.02;7.85;;;12.60;99.90;;;;;;5107561;28;20035;-72
2022/11/04 09:08:47;;;;;;;23.60;7.88;;;12.90;99.90;;;;;;5107395;28;20364;-73
2022/11/04 09:11:15;;;;;;;15.35;6.15;;;13.50;99.90;;;;;;5092036;28;20054;-73
2022/11/04 09:13:41;;;;;;;19.02;7.43;;;14.30;99.90;;;;;;5090897;28;20424;-72
2022/11/04 09:16:09;;;;;;;17.23;6.60;;;15.10;99.90;;;;;;5092249;28;20081;-73
2022/11/04 09:18:35;;;;;;;13.88;6.75;;;15.90;99.90;;;;;;5078198;28;20456;-72
2022/11/04 09:21:01;;;;;;;13.90;6.63;;;16.70;99.90;;;;;;5079349;28;20034;-73
2022/11/04 09:23:27;;;;;;;17.35;7.60;;;17.60;99.90;;;;;;5091231;28;20022;-73
2022/11/04 09:25:54;;;;;;;12.88;5.55;;;18.80;99.90;;;;;;5083476;28;20104;-72
2022/11/04 09:28:20;;;;;;;13.93;6.15;;;20.10;99.90;;;;;;5057763;28;20305;-72
2022/11/04 09:30:45;;;;;;;11.48;5.25;;;21.10;99.90;;;;;;5089076;28;20044;-74
2022/11/04 09:33:11;;;;;;;11.90;5.47;;;21.20;99.90;;;;;;5091293;28;20023;-73
2022/11/04 09:35:37;;;;;;;13.27;5.75;;;20.90;99.90;;;;;;5091796;28;20024;-74
2022/11/04 09:38:02;;;;;;;17.48;7.57;;;20.40;99.90;;;;;;5091369;28;20044;-74
2022/11/04 09:40:29;;;;;;;10.18;4.88;;;20.40;99.90;;;;;;5090686;28;20020;-72
2022/11/04 09:43:13;;;;;;;10.60;5.63;;;20.70;99.90;;;;;;5089220;28;20047;-72
2022/11/04 09:45:41;;;;;;;9.95;4.50;;;21.00;99.90;;;;;;5092079;28;20111;-73
2022/11/04 09:48:11;;;;;;;8.80;4.68;;;21.10;99.90;;;;;;5090343;28;20446;-73
2022/11/04 09:50:49;;;;;;;17.40;5.68;;;21.00;99.90;;;;;;5090214;28;20444;-72
2022/11/04 09:53:27;;;;;;;15.73;6.35;;;20.40;99.90;;;;;;5080708;28;20115;-74
2022/11/04 09:56:15;;;;;;;11.88;5.38;;;19.40;99.90;;;;;;5083661;28;20081;-74
2022/11/04 09:58:41;;;;;;;9.77;4.20;;;18.40;99.90;;;;;;5088245;28;20414;-73
2022/11/04 10:01:27;;;;;;;17.05;4.40;;;17.40;99.90;;;;;;5075727;28;20016;-76
2022/11/04 10:04:14;;;;;;;12.00;3.78;;;16.60;99.90;;;;;;5083251;28;20019;-74
2022/11/04 10:07:10;;;;;;;5.70;2.65;;;16.00;99.90;;;;;;5089126;28;20379;-74
2022/11/04 10:09:58;;;;;;;13.00;5.45;;;15.30;99.90;;;;;;5073743;28;20360;-72
2022/11/04 10:12:49;;;;;;;5.78;2.00;;;14.70;99.90;;;;;;5075225;28;20016;-73
2022/11/04 10:15:58;;;;;;;12.13;3.17;;;14.30;99.90;;;;;;5060968;28;20452;-74
2022/11/04 10:18:47;;;;;;;6.72;1.95;;;14.00;99.90;;;;;;5091496;28;20044;-73
2022/11/04 10:21:25;;;;;;;8.43;1.98;;;13.80;99.90;;;;;;5091183;28;20098;-73
2022/11/04 10:24:12;;;;;;;7.63;2.53;;;13.60;99.90;;;;;;5090902;28;20028;-73
2022/11/04 10:26:45;;;;;;;8.02;2.03;;;13.30;99.90;;;;;;5078451;28;20027;-72
2022/11/04 10:29:18;;;;;;;5.65;1.80;;;13.10;99.90;;;;;;5079521;28;20448;-72
2022/11/04 10:31:45;;;;;;;8.75;1.92;;;12.90;99.90;;;;;;5091619;28;20024;-72
2022/11/04 10:34:35;;;;;;;6.80;2.30;;;12.70;99.90;;;;;;5090648;28;20356;-73
2022/11/04 10:37:02;;;;;;;5.53;1.90;;;12.60;99.90;;;;;;5074284;28;20507;-72
2022/11/04 10:39:32;;;;;;;9.60;2.83;;;12.60;99.90;;;;;;5077278;28;20091;-72
2022/11/04 10:41:58;;;;;;;6.70;1.90;;;12.50;99.90;;;;;;5087941;28;20048;-72
2022/11/04 10:44:27;;;;;;;6.30;2.25;;;12.60;99.90;;;;;;5078181;28;20032;-73
2022/11/04 10:47:17;;;;;;;5.60;1.75;;;12.60;99.90;;;;;;5090503;28;20367;-73
2022/11/04 10:50:02;;;;;;;12.75;5.05;;;12.60;99.90;;;;;;5090668;28;20027;-72
2022/11/04 10:52:27;;;;;;;15.75;4.03;;;12.80;99.90;;;;;;5090580;28;20027;-73
2022/11/04 10:54:53;;;;;;;7.80;2.50;;;12.90;99.90;;;;;;5089210;28;20024;-72
2022/11/04 10:57:23;;;;;;;8.00;3.28;;;13.00;99.90;;;;;;5090600;28;20028;-73
2022/11/04 11:00:00;;;;;;;6.65;2.85;;;13.20;99.90;;;;;;5083241;28;20031;-72
2022/11/04 11:02:58;;;;;;;8.43;3.20;;;13.40;99.90;;;;;;5087604;28;20039;-72
2022/11/04 11:05:24;;;;;;;6.60;2.63;;;13.60;99.90;;;;;;5055338;28;20036;-73
2022/11/04 11:07:53;;;;;;;10.10;2.85;;;13.80;99.90;;;;;;5082303;28;20018;-73
2022/11/04 11:10:19;;;;;;;6.47;1.77;;;14.10;99.90;;;;;;5084218;28;20074;-73
2022/11/04 11:12:53;;;;;;;5.80;1.92;;;14.40;99.90;;;;;;5091521;28;20024;-72
2022/11/04 11:15:32;;;;;;;10.45;1.85;;;14.70;99.90;;;;;;5079438;28;20444;-71
2022/11/04 11:18:06;;;;;;;7.03;2.75;;;14.90;99.90;;;;;;5092449;28;20039;-73
2022/11/04 11:20:36;;;;;;;12.65;4.18;;;15.20;99.90;;;;;;5093250;28;20034;-74
2022/11/04 11:23:08;;;;;;;7.57;3.05;;;15.50;99.90;;;;;;5079255;28;20090;-72
2022/11/04 11:25:41;;;;;;;7.70;3.13;;;15.80;99.90;;;;;;5088773;28;20063;-74
2022/11/04 11:28:09;;;;;;;11.38;2.83;;;15.80;99.90;;;;;;5080209;28;20059;-76
2022/11/04 11:30:55;;;;;;;6.13;1.92;;;15.70;99.90;;;;;;5073386;28;20031;-74
2022/11/04 11:33:26;;;;;;;16.70;2.22;;;15.10;99.90;;;;;;5072745;28;20499;-74
2022/11/04 11:36:11;;;;;;;10.95;2.88;;;14.40;99.90;;;;;;5073207;28;20444;-74
2022/11/04 11:38:52;;;;;;;10.98;1.90;;;13.80;99.90;;;;;;5071566;28;20067;-73
2022/11/04 11:41:22;;;;;;;9.13;2.72;;;13.40;99.90;;;;;;5092214;28;20375;-75
2022/11/04 11:43:52;;;;;;;2.55;1.50;;;13.10;99.90;;;;;;5092380;28;20529;-74
2022/11/04 11:46:27;;;;;;;2.80;1.35;;;12.90;99.90;;;;;;5091881;28;20024;-75
2022/11/04 11:49:00;;;;;;;7.07;1.88;;;12.70;99.90;;;;;;5075260;28;20021;-74
2022/11/04 11:51:36;;;;;;;6.55;2.22;;;12.40;99.90;;;;;;5076749;28;20380;-75
2022/11/04 11:54:21;;;;;;;6.63;2.45;;;12.30;99.90;;;;;;5092120;28;20049;-73
2022/11/04 11:56:59;;;;;;;6.90;2.20;;;12.10;99.90;;;;;;5076452;28;20024;-73
2022/11/04 11:59:34;;;;;;;6.85;2.50;;;12.10;99.90;;;;;;5077797;28;20055;-72
2022/11/04 12:02:21;;;;;;;8.65;2.65;;;12.10;99.90;;;;;;5081193;28;20368;-74
2022/11/04 12:04:47;;;;;;;9.13;2.40;;;12.10;99.90;;;;;;5082220;28;20062;-72
2022/11/04 12:07:45;;;;;;;9.00;3.08;;;12.10;99.90;;;;;;5083916;28;20060;-73
2022/11/04 12:10:26;;;;;;;8.90;2.47;;;12.20;99.90;;;;;;5073606;28;20221;-73
2022/11/04 12:13:36;;;;;;;4.03;1.80;;;12.30;99.90;;;;;;5093253;28;20089;-72
2022/11/04 12:16:27;;;;;;;4.72;1.73;;;12.30;99.90;;;;;;5094031;28;20051;-73
2022/11/04 12:19:13;;;;;;;7.80;2.92;;;12.40;99.90;;;;;;5094434;28;20031;-73
2022/11/04 12:22:00;;;;;;;7.85;2.45;;;12.40;99.90;;;;;;5096111;28;20012;-73
2022/11/04 12:24:52;;;;;;;8.18;2.15;;;12.40;99.90;;;;;;5079559;28;20101;-74
2022/11/04 12:27:42;;;;;;;6.07;2.15;;;12.40;99.90;;;;;;5091333;28;20032;-74
2022/11/04 12:30:09;;;;;;;9.20;2.58;;;12.40;99.90;;;;;;5092556;28;20024;-72
2022/11/04 12:32:52;;;;;;;6.45;1.90;;;12.40;99.90;;;;;;5093217;28;20029;-72
2022/11/04 12:35:39;;;;;;;8.93;2.22;;;12.40;99.90;;;;;;5105322;28;20055;-74
2022/11/04 12:38:23;;;;;;;9.57;2.70;;;12.40;99.90;;;;;;5087549;28;20363;-73
2022/11/04 12:41:17;;;;;;;9.95;2.20;;;12.50;99.90;;;;;;5086159;28;20059;-75
2022/11/04 12:43:58;;;;;;;9.65;2.90;;;12.60;99.90;;;;;;5082052;28;20053;-75
2022/11/04 12:46:34;;;;;;;12.15;4.00;;;12.70;99.90;;;;;;5092108;28;20367;-75
2022/11/04 12:49:41;;;;;;;9.18;2.78;;;12.80;99.90;;;;;;5090339;28;20078;-73
2022/11/04 12:52:30;;;;;;;15.55;4.25;;;12.80;99.90;;;;;;5095479;28;20472;-74
2022/11/04 12:55:15;;;;;;;6.05;2.00;;;12.90;99.90;;;;;;5075682;28;20020;-73
2022/11/04 12:58:03;;;;;;;7.10;2.20;;;13.00;99.90;;;;;;5079270;28;20031;-73
2022/11/04 13:00:30;;;;;;;6.15;1.92;;;13.10;99.90;;;;;;5092357;28;20027;-73
2022/11/04 13:02:59;;;;;;;10.65;2.60;;;13.10;99.90;;;;;;5092335;28;20031;-72
2022/11/04 13:05:52;;;;;;;11.38;3.40;;;13.20;99.90;;;;;;5095033;28;20413;-73
2022/11/04 13:08:31;;;;;;;6.60;2.67;;;13.30;99.90;;;;;;5094163;28;20364;-74
2022/11/04 13:11:21;;;;;;;13.70;4.00;;;13.50;99.90;;;;;;5079453;28;20020;-73
2022/11/04 13:13:53;;;;;;;8.85;2.08;;;13.60;99.90;;;;;;5074275;28;20028;-72
2022/11/04 13:16:19;;;;;;;23.42;6.07;;;13.70;99.90;;;;;;5075468;28;20078;-74
2022/11/04 13:18:46;;;;;;;5.35;1.73;;;13.80;99.90;;;;;;5077492;28;20016;-74
2022/11/04 13:21:21;;;;;;;7.97;2.45;;;13.90;99.90;;;;;;5082272;28;20059;-71
2022/11/04 13:23:57;;;;;;;4.95;1.60;;;14.00;99.90;;;;;;5093639;28;20028;-73
2022/11/04 13:26:23;;;;;;;6.07;1.80;;;14.00;99.90;;;;;;5094663;28;20471;-72
2022/11/04 13:29:09;;;;;;;5.15;1.40;;;14.10;99.90;;;;;;5094743;28;20024;-72
2022/11/04 13:32:02;;;;;;;4.38;1.80;;;14.00;99.90;;;;;;5094770;28;20031;-72
2022/11/04 13:34:38;;;;;;;5.05;1.50;;;14.10;99.90;;;;;;5079172;28;20029;-74
2022/11/04 13:37:10;;;;;;;9.43;2.17;;;14.00;99.90;;;;;;5086970;28;20028;-72
2022/11/04 13:39:53;;;;;;;5.22;2.28;;;14.10;99.90;;;;;;5092627;28;20374;-73